createdAt,value
2022-10-18T00:01:04.074Z,84.40
2022-10-18T00:03:32.162Z,82.60
2022-10-18T00:06:00.050Z,82.80
2022-10-18T00:08:28.700Z,84.40
2022-10-18T00:10:57.046Z,84.60
2022-10-18T00:13:26.665Z,84.30
2022-10-18T00:16:00.038Z,83.90
2022-10-18T00:18:28.645Z,84.40
2022-10-18T00:21:01.189Z,84.30
2022-10-18T00:23:29.757Z,84.00
2022-10-18T00:26:16.607Z,84.00
2022-10-18T00:28:45.115Z,82.80
2022-10-18T00:31:29.361Z,85.20
2022-10-18T00:33:59.687Z,86.80
2022-10-18T00:36:29.110Z,87.50
2022-10-18T00:38:58.025Z,89.40
2022-10-18T00:41:28.555Z,89.60
2022-10-18T00:44:06.131Z,90.60
2022-10-18T00:46:36.484Z,90.70
2022-10-18T00:49:23.271Z,89.80
2022-10-18T00:51:59.136Z,88.40
2022-10-18T00:54:31.035Z,86.00
2022-10-18T00:56:59.081Z,87.20
2022-10-18T00:59:28.208Z,86.30
2022-10-18T01:01:57.026Z,85.40
2022-10-18T01:04:25.262Z,85.90
2022-10-18T01:07:19.158Z,86.40
2022-10-18T01:09:49.967Z,86.10
2022-10-18T01:12:47.882Z,85.30
2022-10-18T01:15:30.200Z,86.20
2022-10-18T01:18:08.014Z,88.40
2022-10-18T01:20:44.078Z,88.60
2022-10-18T01:23:39.030Z,87.80
2022-10-18T01:26:12.339Z,85.40
2022-10-18T01:29:05.707Z,85.40
2022-10-18T01:31:43.892Z,87.10
2022-10-18T01:34:15.256Z,89.10
2022-10-18T01:36:50.988Z,90.10
2022-10-18T01:39:27.964Z,90.00
2022-10-18T01:41:59.212Z,90.20
2022-10-18T01:44:30.133Z,89.30
2022-10-18T01:46:59.177Z,87.80
2022-10-18T01:49:28.147Z,86.60
2022-10-18T01:51:57.072Z,85.20
2022-10-18T01:54:34.933Z,85.60
2022-10-18T01:57:40.261Z,88.60
2022-10-18T02:00:34.501Z,88.70
2022-10-18T02:03:33.275Z,87.90
2022-10-18T02:06:18.815Z,86.00
2022-10-18T02:08:55.302Z,88.20
2022-10-18T02:11:22.765Z,88.40
2022-10-18T02:13:55.660Z,86.60
2022-10-18T02:16:38.283Z,87.40
2022-10-18T02:19:12.028Z,87.30
2022-10-18T02:21:43.592Z,85.90
2022-10-18T02:24:14.502Z,86.30
2022-10-18T02:26:42.660Z,86.90
2022-10-18T02:29:10.565Z,88.60
2022-10-18T02:31:46.324Z,88.80
2022-10-18T02:34:39.605Z,88.00
2022-10-18T02:37:07.855Z,86.80
2022-10-18T02:39:44.402Z,85.90
2022-10-18T02:42:13.780Z,84.10
2022-10-18T02:44:41.339Z,85.80
2022-10-18T02:47:11.701Z,86.80
2022-10-18T02:49:39.327Z,87.00
2022-10-18T02:52:06.686Z,87.40
2022-10-18T02:54:34.070Z,86.30
2022-10-18T02:57:02.049Z,87.90
2022-10-18T02:59:29.287Z,88.00
2022-10-18T03:01:57.621Z,87.10
2022-10-18T03:04:25.754Z,86.60
2022-10-18T03:06:53.686Z,86.70
2022-10-18T03:09:21.535Z,84.90
2022-10-18T03:11:48.984Z,84.60
2022-10-18T03:14:16.783Z,85.00
2022-10-18T03:16:44.273Z,84.40
2022-10-18T03:19:12.023Z,83.40
2022-10-18T03:21:40.870Z,83.40
2022-10-18T03:24:08.205Z,84.00
2022-10-18T03:26:35.947Z,83.90
2022-10-18T03:29:03.675Z,83.70
2022-10-18T03:34:04.028Z,83.90
2022-10-18T03:36:31.316Z,83.70
2022-10-18T03:38:58.720Z,83.40
2022-10-18T03:41:26.112Z,83.50
2022-10-18T03:43:53.506Z,84.20
2022-10-18T03:46:21.056Z,84.70
2022-10-18T03:48:48.519Z,84.40
2022-10-18T03:51:16.108Z,83.70
2022-10-18T03:53:43.530Z,83.20
2022-10-18T03:56:10.954Z,84.30
2022-10-18T03:58:38.485Z,85.50
2022-10-18T04:01:05.786Z,86.30
2022-10-18T04:03:33.349Z,85.70
2022-10-18T04:06:00.935Z,85.40
2022-10-18T04:08:28.248Z,85.90
2022-10-18T04:10:56.031Z,85.40
2022-10-18T04:13:23.745Z,85.20
2022-10-18T04:15:53.450Z,86.90
2022-10-18T04:18:23.051Z,86.70
2022-10-18T04:20:52.586Z,85.90
2022-10-18T04:23:21.827Z,85.70
2022-10-18T04:25:50.453Z,85.90
2022-10-18T04:28:19.087Z,85.50
2022-10-18T04:30:57.247Z,85.80
2022-10-18T04:33:25.506Z,85.50
2022-10-18T04:35:53.942Z,84.30
2022-10-18T04:38:23.515Z,87.00
2022-10-18T04:40:52.089Z,88.10
2022-10-18T04:43:20.656Z,89.70
2022-10-18T04:45:53.641Z,90.40
2022-10-18T04:48:23.869Z,89.70
2022-10-18T04:50:52.628Z,88.50
2022-10-18T04:53:21.914Z,87.60
2022-10-18T04:55:51.920Z,86.60
2022-10-18T04:58:20.020Z,87.50
2022-10-18T05:00:52.504Z,88.10
2022-10-18T05:03:23.288Z,88.10
2022-10-18T05:06:07.003Z,87.10
2022-10-18T05:08:36.204Z,84.70
2022-10-18T05:11:04.028Z,87.30
2022-10-18T05:13:31.643Z,87.50
2022-10-18T05:16:03.140Z,86.70
2022-10-18T05:18:30.795Z,86.30
2022-10-18T05:20:58.668Z,85.80
2022-10-18T05:23:26.317Z,85.60
2022-10-18T05:25:54.329Z,83.10
2022-10-18T05:28:40.515Z,84.20
2022-10-18T05:31:10.884Z,84.40
2022-10-18T05:33:38.324Z,84.90
2022-10-18T05:36:05.977Z,85.40
2022-10-18T05:38:33.549Z,85.80
2022-10-18T05:41:04.313Z,85.80
2022-10-18T05:43:31.428Z,84.80
2022-10-18T05:45:58.848Z,85.90
2022-10-18T05:48:26.787Z,85.70
2022-10-18T05:50:54.316Z,85.00
2022-10-18T05:53:36.338Z,86.20
2022-10-18T05:56:05.390Z,87.10
2022-10-18T05:58:32.939Z,86.20
2022-10-18T06:01:05.541Z,86.30
2022-10-18T06:03:34.951Z,85.70
2022-10-18T06:06:03.338Z,85.10
2022-10-18T06:08:31.336Z,84.30
2022-10-18T06:10:58.713Z,82.70
2022-10-18T06:13:26.262Z,81.70
2022-10-18T06:16:28.450Z,80.80
2022-10-18T06:19:00.478Z,80.60
2022-10-18T06:21:28.463Z,80.70
2022-10-18T06:23:58.671Z,80.70
2022-10-18T06:26:27.416Z,81.10
2022-10-18T06:28:54.831Z,81.20
2022-10-18T06:31:23.151Z,81.20
2022-10-18T06:33:51.723Z,81.10
2022-10-18T06:36:22.763Z,81.20
2022-10-18T06:38:51.728Z,81.20
2022-10-18T06:41:19.985Z,81.50
2022-10-18T06:43:53.530Z,81.50
2022-10-18T06:46:21.815Z,81.70
2022-10-18T06:48:49.978Z,82.80
2022-10-18T06:51:18.717Z,84.10
2022-10-18T06:53:59.306Z,85.70
2022-10-18T06:56:34.036Z,86.50
2022-10-18T06:59:01.374Z,87.00
2022-10-18T07:01:43.903Z,87.20
2022-10-18T07:04:24.657Z,87.40
2022-10-18T07:06:54.476Z,88.70
2022-10-18T07:09:21.941Z,87.70
2022-10-18T07:11:50.002Z,87.00
2022-10-18T07:14:17.331Z,85.80
2022-10-18T07:16:44.661Z,84.70
2022-10-18T07:19:12.543Z,84.90
2022-10-18T07:21:40.354Z,84.90
2022-10-18T07:24:08.026Z,83.50
2022-10-18T07:26:36.096Z,84.60
2022-10-18T07:29:09.731Z,84.70
2022-10-18T07:31:38.699Z,83.80
2022-10-18T07:34:07.611Z,82.80
2022-10-18T07:36:35.448Z,83.10
2022-10-18T07:39:03.401Z,82.90
2022-10-18T07:41:35.168Z,82.40
2022-10-18T07:44:03.679Z,82.60
2022-10-18T07:46:31.362Z,83.80
2022-10-18T07:48:59.752Z,82.80
2022-10-18T07:51:28.372Z,82.40
2022-10-18T07:53:55.748Z,81.50
2022-10-18T07:56:23.542Z,81.20
2022-10-18T07:58:53.307Z,80.30
2022-10-18T08:01:24.349Z,80.50
2022-10-18T08:03:55.660Z,79.50
2022-10-18T08:06:24.112Z,79.70
2022-10-18T08:08:53.236Z,79.80
2022-10-18T08:11:25.087Z,79.00
2022-10-18T08:13:53.793Z,79.10
2022-10-18T08:16:26.874Z,78.50
2022-10-18T08:18:55.002Z,77.60
2022-10-18T08:21:23.042Z,77.20
2022-10-18T08:23:52.054Z,78.90
2022-10-18T08:26:23.211Z,78.10
2022-10-18T08:29:10.327Z,76.90
2022-10-18T08:31:39.254Z,77.70
2022-10-18T08:34:06.661Z,76.90
2022-10-18T08:36:34.082Z,76.00
2022-10-18T08:39:03.110Z,75.70
2022-10-18T08:41:35.359Z,75.40
2022-10-18T08:44:22.244Z,75.10
2022-10-18T08:46:53.944Z,74.30
2022-10-18T08:50:01.168Z,73.00
2022-10-18T08:52:53.483Z,71.80
2022-10-18T08:55:41.552Z,71.30
2022-10-18T08:58:27.012Z,72.10
2022-10-18T09:01:29.372Z,72.30
2022-10-18T09:04:46.241Z,71.50
2022-10-18T09:07:22.413Z,70.60
2022-10-18T09:10:12.983Z,70.10
2022-10-18T09:12:53.569Z,69.90
2022-10-18T09:15:48.254Z,68.60
2022-10-18T09:18:37.585Z,68.70
2022-10-18T09:21:16.985Z,68.90
2022-10-18T09:23:49.085Z,68.40
2022-10-18T09:26:20.433Z,67.50
2022-10-18T09:29:08.285Z,68.20
2022-10-18T09:32:13.217Z,67.90
2022-10-18T09:34:51.134Z,68.20
2022-10-18T09:37:21.166Z,67.40
2022-10-18T09:39:52.163Z,67.40
2022-10-18T09:42:41.879Z,67.20
2022-10-18T09:45:32.344Z,67.80
2022-10-18T09:48:12.574Z,67.30
2022-10-18T09:50:47.854Z,65.70
2022-10-18T09:53:22.010Z,64.90
2022-10-18T09:56:11.163Z,64.80
2022-10-18T09:58:47.332Z,65.10
2022-10-18T10:01:29.617Z,64.60
2022-10-18T10:03:57.372Z,64.30
2022-10-18T10:06:32.228Z,63.70
2022-10-18T10:09:14.425Z,63.10
2022-10-18T10:11:50.998Z,63.40
2022-10-18T10:14:24.390Z,64.00
2022-10-18T10:16:56.210Z,63.50
2022-10-18T10:19:37.687Z,61.70
2022-10-18T10:22:12.312Z,62.70
2022-10-18T10:24:53.276Z,62.30
2022-10-18T10:27:32.176Z,60.60
2022-10-18T10:30:06.969Z,60.00
2022-10-18T10:32:47.882Z,61.60
2022-10-18T10:35:53.073Z,60.90
2022-10-18T10:38:26.502Z,60.30
2022-10-18T10:44:14.100Z,56.80
2022-10-18T10:46:41.863Z,58.50
2022-10-18T10:54:18.038Z,57.60
2022-10-18T10:56:54.550Z,57.70
2022-10-18T10:59:24.279Z,57.10
2022-10-18T11:02:14.518Z,56.80
2022-10-18T11:04:42.845Z,58.00
2022-10-18T11:07:10.013Z,57.00
2022-10-18T11:09:42.453Z,54.90
2022-10-18T11:12:27.303Z,54.30
2022-10-18T11:15:11.910Z,52.60
2022-10-18T11:18:17.524Z,53.10
2022-10-18T11:21:02.381Z,52.70
2022-10-18T11:23:32.796Z,52.80
2022-10-18T11:26:12.336Z,53.00
2022-10-18T11:29:06.937Z,52.30
2022-10-18T11:31:49.338Z,53.50
2022-10-18T11:34:37.794Z,51.80
2022-10-18T11:37:41.266Z,51.40
2022-10-18T11:40:27.835Z,50.80
2022-10-18T11:43:05.729Z,51.60
2022-10-18T11:45:44.479Z,51.90
2022-10-18T11:48:53.173Z,52.60
2022-10-18T11:51:23.155Z,51.30
2022-10-18T11:54:25.999Z,51.30
2022-10-18T11:57:03.079Z,51.10
2022-10-18T11:59:59.745Z,51.70
2022-10-18T12:02:54.445Z,51.70
2022-10-18T12:05:23.956Z,51.20
2022-10-18T12:07:57.688Z,52.30
2022-10-18T12:10:38.009Z,52.40
2022-10-18T12:13:45.042Z,51.80
2022-10-18T12:16:12.996Z,51.30
2022-10-18T12:18:56.431Z,53.00
2022-10-18T12:21:27.221Z,53.20
2022-10-18T12:24:09.214Z,54.00
2022-10-18T12:26:37.138Z,54.60
2022-10-18T12:29:40.144Z,52.90
2022-10-18T12:32:16.999Z,55.00
2022-10-18T12:34:50.965Z,54.40
2022-10-18T12:37:37.070Z,53.40
2022-10-18T12:40:21.759Z,52.60
2022-10-18T12:42:51.888Z,52.40
2022-10-18T12:45:26.682Z,53.70
2022-10-18T12:47:59.349Z,54.20
2022-10-18T12:50:32.015Z,53.60
2022-10-18T12:53:09.653Z,53.90
2022-10-18T12:55:40.121Z,54.20
2022-10-18T12:58:24.542Z,53.00
2022-10-18T13:00:54.531Z,54.00
2022-10-18T13:03:24.638Z,52.70
2022-10-18T13:06:00.723Z,52.60
2022-10-18T13:08:34.075Z,52.50
2022-10-18T13:11:10.663Z,53.50
2022-10-18T13:14:19.405Z,51.60
2022-10-18T13:16:58.911Z,52.30
2022-10-18T13:19:36.006Z,52.50
2022-10-18T13:22:31.368Z,52.30
2022-10-18T13:25:06.929Z,52.00
2022-10-18T13:27:38.527Z,54.40
2022-10-18T13:30:28.318Z,52.40
2022-10-18T13:33:16.176Z,52.00
2022-10-18T13:35:50.225Z,51.60
2022-10-18T13:38:58.851Z,52.00
2022-10-18T13:41:31.327Z,53.40
2022-10-18T13:44:40.400Z,50.10
2022-10-18T13:47:07.718Z,52.30
2022-10-18T13:50:06.202Z,50.00
2022-10-18T13:53:14.980Z,51.40
2022-10-18T13:56:15.402Z,52.60
2022-10-18T13:59:15.410Z,52.40
2022-10-18T14:01:42.877Z,52.50
2022-10-18T14:04:24.576Z,52.60
2022-10-18T14:06:52.770Z,52.90
2022-10-18T14:09:40.201Z,52.50
2022-10-18T14:12:29.379Z,52.20
2022-10-18T14:15:05.514Z,52.50
2022-10-18T14:17:52.881Z,52.00
2022-10-18T14:21:01.282Z,52.40
2022-10-18T14:23:37.050Z,53.90
2022-10-18T14:26:18.122Z,52.40
2022-10-18T14:28:59.435Z,53.20
2022-10-18T14:31:28.459Z,53.00
2022-10-18T14:33:59.827Z,52.60
2022-10-18T14:36:39.928Z,54.20
2022-10-18T14:39:17.080Z,57.00
2022-10-18T14:41:53.261Z,59.80
2022-10-18T14:44:31.228Z,58.30
2022-10-18T14:47:23.486Z,60.00
2022-10-18T14:49:51.941Z,60.30
2022-10-18T14:52:26.238Z,59.30
2022-10-18T14:54:58.429Z,59.50
2022-10-18T14:57:30.703Z,58.30
2022-10-18T15:00:09.200Z,57.40
2022-10-18T15:02:38.680Z,55.90
2022-10-18T15:05:08.354Z,55.20
2022-10-18T15:07:36.508Z,56.00
2022-10-18T15:10:05.483Z,56.30
2022-10-18T15:12:37.121Z,57.20
2022-10-18T15:15:29.166Z,55.70
2022-10-18T15:17:58.601Z,57.60
2022-10-18T15:20:39.636Z,61.80
2022-10-18T15:23:26.221Z,64.30
2022-10-18T15:26:05.578Z,66.60
2022-10-18T15:28:37.879Z,67.20
2022-10-18T15:31:05.552Z,68.10
2022-10-18T15:33:36.502Z,68.80
2022-10-18T15:36:12.303Z,69.30
2022-10-18T15:38:39.685Z,69.70
2022-10-18T15:41:39.695Z,70.00
2022-10-18T15:44:13.155Z,70.40
2022-10-18T15:46:41.439Z,70.50
2022-10-18T15:49:46.724Z,70.70
2022-10-18T15:52:38.100Z,70.90
2022-10-18T15:55:31.247Z,70.90
2022-10-18T15:58:06.745Z,71.30
2022-10-18T16:00:35.893Z,71.40
2022-10-18T16:03:03.635Z,71.70
2022-10-18T16:05:30.993Z,71.90
2022-10-18T16:07:58.575Z,72.10
2022-10-18T16:10:26.459Z,72.30
2022-10-18T16:15:28.615Z,72.10
2022-10-18T16:17:57.074Z,72.10
2022-10-18T16:20:26.064Z,72.40
2022-10-18T16:22:53.326Z,72.50
2022-10-18T16:25:20.637Z,72.80
2022-10-18T16:27:47.966Z,73.00
2022-10-18T16:30:23.579Z,73.20
2022-10-18T16:32:52.366Z,73.50
2022-10-18T16:35:19.574Z,73.40
2022-10-18T16:37:47.064Z,73.60
2022-10-18T16:40:22.511Z,73.60
2022-10-18T16:42:49.911Z,73.70
2022-10-18T16:45:19.248Z,73.40
2022-10-18T16:47:48.029Z,73.40
2022-10-18T16:50:18.765Z,73.10
2022-10-18T16:52:46.096Z,72.90
2022-10-18T16:55:21.466Z,72.50
2022-10-18T16:57:50.434Z,72.00
2022-10-18T17:00:26.909Z,71.90
2022-10-18T17:02:54.214Z,72.30
2022-10-18T17:05:21.562Z,72.90
2022-10-18T17:07:49.073Z,72.60
2022-10-18T17:10:19.801Z,73.40
2022-10-18T17:12:47.454Z,73.90
2022-10-18T17:15:15.043Z,73.80
2022-10-18T17:17:42.434Z,74.00
2022-10-18T17:20:15.779Z,73.90
2022-10-18T17:22:43.038Z,74.20
2022-10-18T17:25:10.329Z,75.80
2022-10-18T17:27:37.733Z,78.90
2022-10-18T17:30:05.855Z,79.90
2022-10-18T17:32:33.399Z,80.20
2022-10-18T17:35:00.827Z,79.50
2022-10-18T17:37:28.676Z,78.60
2022-10-18T17:39:56.302Z,77.90
2022-10-18T17:42:27.132Z,77.20
2022-10-18T17:44:57.065Z,78.10
2022-10-18T17:47:26.208Z,78.30
2022-10-18T17:49:53.669Z,78.10
2022-10-18T17:52:21.047Z,77.70
2022-10-18T17:54:48.300Z,77.20
2022-10-18T17:57:16.347Z,78.20
2022-10-18T17:59:43.821Z,78.40
2022-10-18T18:02:12.026Z,78.20
2022-10-18T18:04:39.365Z,78.20
2022-10-18T18:07:06.706Z,77.10
2022-10-18T18:09:33.981Z,77.00
2022-10-18T18:12:01.363Z,77.30
2022-10-18T18:14:29.130Z,76.90
2022-10-18T18:16:56.823Z,77.50
2022-10-18T18:23:37.327Z,79.60
2022-10-18T18:26:04.754Z,80.90
2022-10-18T18:28:32.153Z,80.30
2022-10-18T18:31:00.392Z,79.50
2022-10-18T18:33:28.624Z,80.70
2022-10-18T18:35:58.116Z,82.50
2022-10-18T18:38:26.887Z,83.50
2022-10-18T18:41:13.383Z,83.60
2022-10-18T18:50:52.036Z,85.50
2022-10-18T18:53:19.784Z,85.00
2022-10-18T18:55:56.014Z,84.80
2022-10-18T18:58:23.262Z,84.10
2022-10-18T19:00:57.089Z,82.70
2022-10-18T19:08:08.094Z,84.10
2022-10-18T19:14:07.885Z,85.40
2022-10-18T19:16:40.655Z,83.70
2022-10-18T19:19:12.028Z,82.40
2022-10-18T19:21:47.878Z,81.50
2022-10-18T19:24:15.722Z,80.50
2022-10-18T19:27:00.987Z,79.60
2022-10-18T19:29:31.638Z,80.00
2022-10-18T19:32:01.333Z,80.20
2022-10-18T19:34:32.984Z,80.70
2022-10-18T19:37:01.758Z,80.10
2022-10-18T19:39:31.707Z,79.90
2022-10-18T19:42:03.506Z,80.10
2022-10-18T19:44:33.322Z,82.70
2022-10-18T19:47:00.970Z,85.60
2022-10-18T19:49:29.493Z,87.30
2022-10-18T19:51:58.522Z,87.20
2022-10-18T19:54:26.080Z,86.40
2022-10-18T19:56:53.924Z,84.70
2022-10-18T19:59:22.678Z,86.90
2022-10-18T20:01:50.159Z,88.00
2022-10-18T20:04:18.060Z,86.30
2022-10-18T20:06:45.699Z,88.10
2022-10-18T20:09:17.663Z,88.80
2022-10-18T20:11:48.006Z,88.20
2022-10-18T20:14:15.334Z,88.30
2022-10-18T20:16:42.744Z,87.20
2022-10-18T20:19:11.864Z,85.80
2022-10-18T20:21:40.047Z,84.70
2022-10-18T20:24:07.982Z,86.70
2022-10-18T20:26:36.148Z,87.00
2022-10-18T20:29:03.879Z,87.10
2022-10-18T20:31:33.908Z,86.60
2022-10-18T20:34:04.095Z,86.70
2022-10-18T20:36:32.448Z,88.50
2022-10-18T20:39:00.223Z,88.60
2022-10-18T20:41:34.228Z,88.60
2022-10-18T20:44:10.810Z,87.20
2022-10-18T20:46:39.041Z,87.40
2022-10-18T20:49:07.607Z,86.90
2022-10-18T20:51:35.916Z,87.90
2022-10-18T20:56:34.414Z,89.60
2022-10-18T20:59:10.146Z,89.60
2022-10-18T21:01:40.939Z,89.00
2022-10-18T21:04:10.464Z,87.90
2022-10-18T21:06:43.312Z,86.00
2022-10-18T21:09:16.247Z,84.90
2022-10-18T21:11:53.114Z,83.80
2022-10-18T21:14:23.603Z,82.90
2022-10-18T21:16:51.549Z,85.40
2022-10-18T21:19:20.702Z,86.30
2022-10-18T21:21:53.268Z,87.10
2022-10-18T21:24:22.090Z,87.70
2022-10-18T21:26:50.102Z,87.40
2022-10-18T21:29:22.626Z,86.50
2022-10-18T21:31:59.021Z,86.10
2022-10-18T21:34:27.334Z,86.60
2022-10-18T21:36:54.586Z,86.30
2022-10-18T21:41:57.217Z,84.90
2022-10-18T21:44:24.680Z,84.10
2022-10-18T21:46:52.628Z,84.00
2022-10-18T21:49:20.508Z,83.80
2022-10-18T21:51:47.950Z,82.00
2022-10-18T21:54:16.376Z,84.50
2022-10-18T21:56:44.192Z,86.50
2022-10-18T22:03:24.605Z,90.60
2022-10-18T22:06:09.459Z,92.80
2022-10-18T22:08:43.326Z,92.30
2022-10-18T22:11:12.220Z,91.40
2022-10-18T22:13:39.897Z,90.10
2022-10-18T22:16:19.232Z,88.50
2022-10-18T22:18:50.405Z,87.50
2022-10-18T22:21:19.857Z,86.20
2022-10-18T22:23:50.374Z,87.30
2022-10-18T22:26:43.395Z,88.60
2022-10-18T22:30:03.477Z,86.90
2022-10-18T22:32:32.204Z,86.70
2022-10-18T22:35:00.877Z,86.80
2022-10-18T22:37:30.907Z,86.30
2022-10-18T22:40:00.930Z,85.50
2022-10-18T22:42:30.922Z,86.10
2022-10-18T22:45:00.874Z,86.10
2022-10-18T22:47:31.090Z,85.60
2022-10-18T22:50:00.920Z,82.50
2022-10-18T22:52:31.051Z,84.60
2022-10-18T22:55:00.803Z,85.50
2022-10-18T22:57:30.924Z,85.90
2022-10-18T23:00:00.869Z,86.30
2022-10-18T23:02:31.672Z,85.20
2022-10-18T23:05:01.459Z,86.20
2022-10-18T23:07:31.256Z,87.00
2022-10-18T23:10:01.297Z,87.30
2022-10-18T23:12:31.874Z,87.40
2022-10-18T23:15:01.056Z,86.90
2022-10-18T23:17:31.030Z,85.50
2022-10-18T23:20:01.051Z,85.00
2022-10-18T23:22:31.319Z,84.30
2022-10-18T23:25:01.148Z,82.70
2022-10-18T23:27:31.172Z,83.90
2022-10-18T23:30:01.104Z,84.70
2022-10-18T23:32:31.297Z,85.10
2022-10-18T23:35:01.137Z,85.50
2022-10-18T23:37:31.564Z,89.10
2022-10-18T23:40:06.488Z,90.80
2022-10-18T23:42:39.611Z,91.30
2022-10-18T23:45:09.291Z,91.10
2022-10-18T23:47:36.753Z,90.50
2022-10-18T23:50:05.810Z,89.50
2022-10-18T23:52:33.321Z,87.20
2022-10-18T23:55:01.480Z,85.80
2022-10-18T23:57:31.517Z,84.40
